Flugplatz Barßel

METAR ETNT TAF EHGG
5 °C
°C
-
°C
11m
Âge
22:31:22
LT
21:31
UTC
0 ft

1.000

2.000

3.000

4.000

5.000

UNKN
<?= Yii::t('app', 'Wind direction') ?> <?= Yii::t('app', 'of'); ?>
240°
08:19
Lever du soleil
93%
Humidité
Cisaillement du vent
Fermé/neige
Portée visuelle RWY
Condition RWY
Visibilité vert.
Visibilité min.
CAVOK
Tendance
Correction
Rapport spécial
1013 hPa
QNH
METAR ETNT 292120Z AUTO 24014KT //// // ////// 05/04 Q1013 ///
Aucun nuage
12 kt
12 kt
22:00
MVFR
14 kt
23:00
MVFR
14 kt
00:00
MVFR
14 kt
01:00
IFR
17 kt
02:00
IFR
17 kt
03:00
IFR
17 kt
04:00
IFR
17 kt
Vue
Non
Base cloud
14 kt
Vent
metar-taf.com/EDXL

Metar-Taf.com

Décodeur visuel

Nous et des tiers suivons ton comportement Internet sur notre site Web à l'aide de cookies. Si tu continues, nous supposons que tu es d'accord avec notre Politique en matière de cookies.